Time;durP1;ratioP1;P1;durP2;ratioP2;P2;SDS_P1;SDS_P2;PMS_P1;PMS_P2;Temp;Humidity;BMP_temperature;BMP_pressure;BME280_temperature;BME280_humidity;BME280_pressure;Samples;Min_cycle;Max_cycle;Signal;HPM_P1;HPM_P2
2023/06/10 00:01:12;;;;;;;;;;;;;;;21.91;29.18;97384.50;4981179;28;1914;-76
2023/06/10 00:03:38;;;;;;;;;;;;;;;21.62;29.58;97388.41;4980516;28;1260;-76
2023/06/10 00:06:05;;;;;;;;;;;;;;;21.71;29.55;97391.31;4996874;28;1059;-77
2023/06/10 00:08:31;;;;;;;;;;;;;;;21.91;29.29;97396.63;4996698;28;882;-76
2023/06/10 00:10:56;;;;;;;;;;;;;;;21.62;29.72;97382.75;4941999;29;956;-76
2023/06/10 00:13:22;;;;;;;;;;;;;;;21.95;29.12;97388.00;4922677;29;1022;-77
2023/06/10 00:15:47;;;;;;;;;;;;;;;21.71;29.55;97380.00;4939073;29;972;-76
2023/06/10 00:18:14;;;;;;;;;;;;;;;21.72;29.38;97381.56;4938830;29;931;-76
2023/06/10 00:20:39;;;;;;;;;;;;;;;21.81;29.06;97383.66;4939076;29;957;-76
2023/06/10 00:23:08;;;;;;;;;;;;;;;22.00;28.77;97381.75;4922717;29;1979;-76
2023/06/10 00:25:34;;;;;;;;;;;;;;;21.55;29.62;97374.50;4938909;29;1260;-77
2023/06/10 00:27:59;;;;;;;;;;;;;;;21.63;29.32;97378.66;4968385;28;981;-76
2023/06/10 00:30:27;;;;;;;;;;;;;;;21.78;29.17;97385.38;4945178;28;1188;-76
2023/06/10 00:32:53;;;;;;;;;;;;;;;21.68;29.28;97380.91;4957390;29;1268;-77
2023/06/10 00:35:18;;;;;;;;;;;;;;;21.51;29.49;97385.19;4938094;29;1253;-76
2023/06/10 00:37:45;;;;;;;;;;;;;;;21.75;29.23;97383.47;4922289;29;1160;-76
2023/06/10 00:40:11;;;;;;;;;;;;;;;21.56;29.41;97381.75;4922436;29;1709;-76
2023/06/10 00:42:36;;;;;;;;;;;;;;;21.75;29.07;97385.50;4951886;28;1993;-76
2023/06/10 00:45:02;;;;;;;;;;;;;;;21.51;29.04;97382.34;4934325;29;950;-76
2023/06/10 00:47:28;;;;;;;;;;;;;;;21.58;28.89;97379.25;4922647;29;994;-76
2023/06/10 00:49:53;;;;;;;;;;;;;;;21.56;28.95;97384.59;4938053;29;1215;-76
2023/06/10 00:52:20;;;;;;;;;;;;;;;22.23;28.76;97381.28;4937974;29;1332;-76
2023/06/10 00:54:45;;;;;;;;;;;;;;;22.40;28.95;97378.22;4953910;28;918;-76
2023/06/10 00:57:11;;;;;;;;;;;;;;;22.39;28.77;97377.44;4922228;29;970;-76
2023/06/10 00:59:36;;;;;;;;;;;;;;;21.97;29.04;97382.69;4954182;28;949;-76
2023/06/10 01:02:03;;;;;;;;;;;;;;;21.88;29.25;97376.97;4953555;28;2001;-77
2023/06/10 01:04:29;;;;;;;;;;;;;;;21.61;29.44;97386.84;4939178;28;1063;-77
2023/06/10 01:07:09;;;;;;;;;;;;;;;21.78;28.92;97384.59;4949564;28;1239;-76
2023/06/10 01:09:52;;;;;;;;;;;;;;;21.87;29.05;97378.22;4953626;28;1268;-77
2023/06/10 01:12:18;;;;;;;;;;;;;;;21.71;29.23;97380.00;4938060;29;1042;-76
2023/06/10 01:14:43;;;;;;;;;;;;;;;21.70;29.34;97384.06;4953739;28;1224;-76
2023/06/10 01:17:09;;;;;;;;;;;;;;;21.78;28.81;97379.72;4937925;29;1297;-76
2023/06/10 01:19:36;;;;;;;;;;;;;;;21.87;28.96;97376.16;4921704;29;1231;-76
2023/06/10 01:22:02;;;;;;;;;;;;;;;21.63;29.38;97375.84;4972345;28;1977;-76
2023/06/10 01:24:28;;;;;;;;;;;;;;;21.61;29.32;97374.72;4979423;28;1027;-76
2023/06/10 01:26:53;;;;;;;;;;;;;;;21.62;28.92;97377.09;5015566;28;988;-76
2023/06/10 01:29:20;;;;;;;;;;;;;;;21.67;28.79;97373.66;5022779;28;1222;-76
2023/06/10 01:31:49;;;;;;;;;;;;;;;21.98;28.50;97364.44;5039291;28;912;-76
2023/06/10 01:34:16;;;;;;;;;;;;;;;21.70;28.60;97367.06;5038770;28;888;-76
2023/06/10 01:36:43;;;;;;;;;;;;;;;21.41;29.47;97369.38;4978964;28;1201;-76
2023/06/10 01:39:09;;;;;;;;;;;;;;;21.59;28.80;97367.47;4963044;28;1113;-76
2023/06/10 01:41:34;;;;;;;;;;;;;;;21.65;29.03;97376.16;4962910;28;1906;-77
2023/06/10 01:44:00;;;;;;;;;;;;;;;22.14;28.41;97372.72;4937413;29;976;-76
2023/06/10 01:46:26;;;;;;;;;;;;;;;22.25;28.70;97367.44;4905891;29;1237;-77
2023/06/10 01:48:51;;;;;;;;;;;;;;;22.41;28.59;97368.44;4936874;29;932;-76
2023/06/10 01:51:17;;;;;;;;;;;;;;;22.48;28.32;97373.81;4921440;29;1181;-76
2023/06/10 01:53:43;;;;;;;;;;;;;;;21.94;29.19;97363.78;4936692;29;1031;-77
2023/06/10 01:56:08;;;;;;;;;;;;;;;22.02;28.80;97370.72;4921625;29;978;-76
2023/06/10 01:58:34;;;;;;;;;;;;;;;22.05;28.48;97358.47;4905531;29;1275;-76
2023/06/10 02:01:00;;;;;;;;;;;;;;;21.94;28.89;97363.78;4921527;29;1441;-77
2023/06/10 02:03:25;;;;;;;;;;;;;;;21.84;28.78;97360.88;4920967;29;1911;-76
2023/06/10 02:05:51;;;;;;;;;;;;;;;21.69;29.16;97371.16;4886967;29;1252;-77
2023/06/10 02:08:16;;;;;;;;;;;;;;;21.78;28.93;97357.06;4928909;28;996;-75
2023/06/10 02:10:42;;;;;;;;;;;;;;;21.71;29.07;97374.34;4927797;28;1244;-76
2023/06/10 02:13:08;;;;;;;;;;;;;;;21.56;29.10;97361.94;4943344;28;1099;-76
2023/06/10 02:15:33;;;;;;;;;;;;;;;21.58;28.92;97365.88;4943407;28;1050;-76
2023/06/10 02:17:59;;;;;;;;;;;;;;;21.64;28.79;97368.91;4959432;28;906;-77
2023/06/10 02:20:25;;;;;;;;;;;;;;;21.53;29.00;97360.81;4931061;28;1093;-77
2023/06/10 02:22:50;;;;;;;;;;;;;;;21.69;28.89;97362.66;4982143;28;1973;-76
2023/06/10 02:25:16;;;;;;;;;;;;;;;21.86;28.30;97363.22;4998006;28;975;-76
2023/06/10 02:27:41;;;;;;;;;;;;;;;22.43;28.53;97365.94;5193944;22;3934;-75
2023/06/10 02:30:10;;;;;;;;;;;;;;;22.69;29.14;97372.97;5055298;28;1301;-75
2023/06/10 02:32:35;;;;;;;;;;;;;;;22.33;29.14;97368.75;5039107;28;761;-75
2023/06/10 02:35:02;;;;;;;;;;;;;;;22.12;29.49;97363.88;5039086;28;1095;-75
2023/06/10 02:37:28;;;;;;;;;;;;;;;21.79;29.62;97364.31;5072509;28;1238;-74
2023/06/10 02:39:55;;;;;;;;;;;;;;;21.72;29.46;97364.56;5038982;28;1325;-75
2023/06/10 02:42:21;;;;;;;;;;;;;;;21.47;29.70;97367.53;5018049;28;1914;-75
2023/06/10 02:44:48;;;;;;;;;;;;;;;21.53;29.28;97368.50;5034485;28;1142;-74
2023/06/10 02:47:20;;;;;;;;;;;;;;;21.73;29.06;97366.16;5019174;28;1402;-75
2023/06/10 02:49:46;;;;;;;;;;;;;;;21.61;29.20;97366.22;5017879;28;733;-75
2023/06/10 02:52:12;;;;;;;;;;;;;;;21.47;29.02;97370.34;5001976;28;1240;-77
2023/06/10 02:54:39;;;;;;;;;;;;;;;21.56;29.14;97373.28;5017811;28;1339;-77
2023/06/10 02:57:07;;;;;;;;;;;;;;;21.39;29.03;97369.81;5034730;28;1106;-77
2023/06/10 02:59:33;;;;;;;;;;;;;;;21.77;28.87;97372.47;4991152;28;1233;-77
2023/06/10 03:02:01;;;;;;;;;;;;;;;22.19;28.17;97366.47;4975219;28;1906;-77
2023/06/10 03:04:31;;;;;;;;;;;;;;;22.19;28.23;97374.97;4959158;28;1105;-77
2023/06/10 03:07:07;;;;;;;;;;;;;;;22.00;28.35;97376.06;4946660;28;1251;-77
2023/06/10 03:09:34;;;;;;;;;;;;;;;21.77;28.85;97372.47;4947311;28;1777;-77
2023/06/10 03:12:01;;;;;;;;;;;;;;;21.66;28.54;97366.44;4962912;28;1399;-77
2023/06/10 03:14:30;;;;;;;;;;;;;;;21.66;28.59;97366.44;4931994;28;1130;-78
2023/06/10 03:16:56;;;;;;;;;;;;;;;21.55;28.82;97371.66;4962898;28;1608;-77
2023/06/10 03:19:23;;;;;;;;;;;;;;;21.58;28.72;97373.59;4975920;28;1152;-77
2023/06/10 03:22:07;;;;;;;;;;;;;;;21.78;28.21;97370.44;5017840;28;1903;-77
2023/06/10 03:24:35;;;;;;;;;;;;;;;21.64;28.63;97374.56;4985168;28;1216;-78
2023/06/10 03:27:04;;;;;;;;;;;;;;;21.67;28.62;97373.66;5001502;28;1289;-77
2023/06/10 03:29:31;;;;;;;;;;;;;;;21.79;28.12;97375.63;4985294;28;1124;-77
2023/06/10 03:31:57;;;;;;;;;;;;;;;21.71;28.14;97363.00;5004935;28;1213;-77
2023/06/10 03:34:23;;;;;;;;;;;;;;;21.44;28.71;97376.94;5049046;28;1892;-77
2023/06/10 03:36:49;;;;;;;;;;;;;;;21.46;28.91;97371.63;5003931;28;1675;-76
2023/06/10 03:39:15;;;;;;;;;;;;;;;21.51;28.60;97377.47;5036899;28;1842;-77
2023/06/10 03:41:41;;;;;;;;;;;;;;;21.66;28.31;97365.59;5036748;28;1979;-76
2023/06/10 03:44:08;;;;;;;;;;;;;;;21.66;28.34;97372.09;5004161;28;1282;-77
2023/06/10 03:46:34;;;;;;;;;;;;;;;21.71;28.34;97363.00;5004826;28;924;-77
2023/06/10 03:49:01;;;;;;;;;;;;;;;22.23;27.77;97360.66;5020806;28;1255;-77
2023/06/10 03:51:26;;;;;;;;;;;;;;;22.09;27.96;97371.25;5037595;28;1833;-77
2023/06/10 03:53:52;;;;;;;;;;;;;;;22.04;28.09;97363.34;5004005;28;938;-76
2023/06/10 03:56:18;;;;;;;;;;;;;;;21.92;27.92;97358.56;5054157;28;935;-77
2023/06/10 03:58:43;;;;;;;;;;;;;;;21.41;28.68;97363.72;5036818;28;1078;-77
2023/06/10 04:01:10;;;;;;;;;;;;;;;21.93;28.09;97365.03;5053595;28;951;-78
2023/06/10 04:03:36;;;;;;;;;;;;;;;21.82;28.15;97371.88;5036437;28;1910;-76
2023/06/10 04:06:02;;;;;;;;;;;;;;;21.77;28.32;97377.34;5047120;28;1563;-76
2023/06/10 04:08:28;;;;;;;;;;;;;;;21.46;28.73;97363.91;5051853;28;1918;-77
2023/06/10 04:10:53;;;;;;;;;;;;;;;21.89;28.54;97367.19;5058121;28;1268;-77
2023/06/10 04:13:19;;;;;;;;;;;;;;;22.28;27.71;97366.50;5020021;28;1104;-77
2023/06/10 04:15:51;;;;;;;;;;;;;;;22.34;27.77;97358.97;5037172;28;1274;-77
2023/06/10 04:18:18;;;;;;;;;;;;;;;21.96;28.10;97364.09;5002771;28;1275;-76
2023/06/10 04:20:45;;;;;;;;;;;;;;;21.93;28.13;97367.84;5020517;28;1324;-77
2023/06/10 04:23:12;;;;;;;;;;;;;;;21.88;28.44;97368.47;5019616;28;1914;-76
2023/06/10 04:25:39;;;;;;;;;;;;;;;21.74;28.27;97373.38;5053386;28;1237;-77
2023/06/10 04:28:05;;;;;;;;;;;;;;;21.79;28.32;97369.97;5056175;28;1516;-77
2023/06/10 04:30:31;;;;;;;;;;;;;;;21.47;28.79;97364.69;5056364;28;1244;-77
2023/06/10 04:32:57;;;;;;;;;;;;;;;21.69;28.64;97368.31;5056390;28;1118;-77
2023/06/10 04:35:23;;;;;;;;;;;;;;;21.74;28.62;97373.38;5039631;28;1230;-77
2023/06/10 04:37:48;;;;;;;;;;;;;;;21.80;28.49;97374.38;5056459;28;1150;-77
2023/06/10 04:40:15;;;;;;;;;;;;;;;21.95;28.27;97376.66;5022890;28;1190;-77
2023/06/10 04:42:42;;;;;;;;;;;;;;;21.88;28.07;97374.91;5026500;28;1886;-76
2023/06/10 04:45:08;;;;;;;;;;;;;;;21.56;28.74;97378.94;5022268;28;1326;-77
2023/06/10 04:47:34;;;;;;;;;;;;;;;21.57;28.82;97374.84;5039560;28;1162;-77
2023/06/10 04:50:00;;;;;;;;;;;;;;;22.30;27.96;97381.00;5060093;28;952;-76
2023/06/10 04:52:25;;;;;;;;;;;;;;;22.48;27.66;97379.50;5060787;28;837;-77
2023/06/10 04:54:51;;;;;;;;;;;;;;;22.58;27.37;97378.28;5039057;28;1142;-77
2023/06/10 04:57:17;;;;;;;;;;;;;;;22.08;28.39;97374.56;5039540;28;1139;-76
2023/06/10 04:59:42;;;;;;;;;;;;;;;21.77;28.45;97383.81;5035551;28;1463;-77
2023/06/10 05:02:08;;;;;;;;;;;;;;;21.75;28.53;97380.63;5031554;28;1906;-77
2023/06/10 05:04:33;;;;;;;;;;;;;;;21.87;28.58;97381.84;5033262;28;1420;-77
2023/06/10 05:06:59;;;;;;;;;;;;;;;21.84;28.62;97383.53;5010337;28;1663;-77
2023/06/10 05:09:25;;;;;;;;;;;;;;;21.67;28.97;97379.31;5003963;28;1097;-77
2023/06/10 05:11:53;;;;;;;;;;;;;;;21.70;29.03;97377.59;5019648;28;1702;-76
2023/06/10 05:14:20;;;;;;;;;;;;;;;21.69;29.28;97388.13;5019118;28;982;-77
2023/06/10 05:16:46;;;;;;;;;;;;;;;21.65;29.22;97387.47;5006618;28;1273;-76
2023/06/10 05:19:12;;;;;;;;;;;;;;;21.59;29.22;97378.00;4998935;28;990;-76
2023/06/10 05:21:37;;;;;;;;;;;;;;;21.59;29.00;97380.81;4999450;28;1911;-77
2023/06/10 05:24:03;;;;;;;;;;;;;;;21.64;29.04;97380.25;5015875;28;952;-77
2023/06/10 05:26:31;;;;;;;;;;;;;;;21.54;29.11;97384.25;4999662;28;1058;-76
2023/06/10 05:28:57;;;;;;;;;;;;;;;22.01;28.89;97383.31;5015220;28;1015;-77
2023/06/10 05:31:22;;;;;;;;;;;;;;;22.36;28.27;97378.34;4985761;28;1402;-78
2023/06/10 05:33:48;;;;;;;;;;;;;;;22.10;28.56;97378.53;5024243;28;1782;-77
2023/06/10 05:36:13;;;;;;;;;;;;;;;21.97;28.74;97371.34;5035227;28;1143;-76
2023/06/10 05:38:39;;;;;;;;;;;;;;;22.17;28.50;97371.78;5034773;28;1018;-77
2023/06/10 05:41:05;;;;;;;;;;;;;;;22.18;28.60;97379.06;5037409;28;1352;-77
2023/06/10 05:43:30;;;;;;;;;;;;;;;21.82;28.78;97369.06;5054476;28;1902;-76
2023/06/10 05:45:56;;;;;;;;;;;;;;;21.77;29.21;97375.31;5043015;28;892;-76
2023/06/10 05:48:22;;;;;;;;;;;;;;;21.88;28.73;97374.13;5059293;28;1080;-77
2023/06/10 05:50:48;;;;;;;;;;;;;;;21.75;28.87;97380.63;5076205;28;1463;-76
2023/06/10 05:53:16;;;;;;;;;;;;;;;21.70;29.14;97378.38;5077102;28;897;-76
2023/06/10 05:55:44;;;;;;;;;;;;;;;21.96;28.51;97378.25;5014776;28;1728;-77
2023/06/10 05:58:12;;;;;;;;;;;;;;;21.63;29.16;97375.84;5014011;28;1299;-76
2023/06/10 06:00:38;;;;;;;;;;;;;;;21.68;28.96;97369.56;5015338;28;929;-77
2023/06/10 06:03:03;;;;;;;;;;;;;;;21.84;28.95;97366.53;4998255;28;1979;-77
2023/06/10 06:05:34;;;;;;;;;;;;;;;21.65;29.11;97372.53;5014946;28;975;-77
2023/06/10 06:08:01;;;;;;;;;;;;;;;21.60;29.37;97368.25;4982329;28;1642;-77
2023/06/10 06:10:27;;;;;;;;;;;;;;;21.36;29.78;97370.75;4979574;28;1011;-77
2023/06/10 06:12:52;;;;;;;;;;;;;;;21.54;29.24;97367.25;4978564;28;1478;-77
2023/06/10 06:15:18;;;;;;;;;;;;;;;21.89;29.04;97368.00;4979213;28;1567;-77
2023/06/10 06:17:43;;;;;;;;;;;;;;;21.82;29.12;97369.06;4956338;28;927;-76
2023/06/10 06:20:09;;;;;;;;;;;;;;;21.63;29.42;97366.56;4956494;28;965;-77
2023/06/10 06:22:35;;;;;;;;;;;;;;;21.56;29.27;97359.91;4956669;28;1972;-77
2023/06/10 06:25:00;;;;;;;;;;;;;;;21.85;28.70;97362.44;4940308;29;1315;-76
2023/06/10 06:27:26;;;;;;;;;;;;;;;21.64;29.26;97368.13;4971548;28;1368;-77
2023/06/10 06:29:52;;;;;;;;;;;;;;;21.56;29.38;97361.94;4966163;28;922;-77
2023/06/10 06:32:17;;;;;;;;;;;;;;;22.31;28.69;97365.56;4998784;28;1130;-76
2023/06/10 06:34:43;;;;;;;;;;;;;;;22.53;28.50;97367.53;5031120;28;1178;-77
2023/06/10 06:37:08;;;;;;;;;;;;;;;22.34;28.64;97373.16;5015285;28;1238;-77
2023/06/10 06:39:37;;;;;;;;;;;;;;;21.97;29.11;97362.84;5030648;28;1285;-77
2023/06/10 06:42:02;;;;;;;;;;;;;;;21.67;29.89;97362.34;5018101;28;1983;-77
2023/06/10 06:44:45;;;;;;;;;;;;;;;21.62;29.83;97359.31;5003628;28;1338;-77
2023/06/10 06:47:11;;;;;;;;;;;;;;;21.49;29.79;97359.34;5002578;28;971;-76
2023/06/10 06:49:37;;;;;;;;;;;;;;;21.57;29.89;97358.66;5002323;28;1027;-76
2023/06/10 06:52:03;;;;;;;;;;;;;;;21.89;29.21;97353.03;5002123;28;974;-76
2023/06/10 06:54:29;;;;;;;;;;;;;;;21.78;29.28;97348.56;5006521;28;1032;-77
2023/06/10 06:56:54;;;;;;;;;;;;;;;21.54;29.65;97353.09;5024093;28;1499;-76
2023/06/10 06:59:20;;;;;;;;;;;;;;;21.85;29.25;97339.78;5041330;28;967;-77
2023/06/10 07:01:46;;;;;;;;;;;;;;;21.84;29.35;97343.88;5039205;28;1910;-76
2023/06/10 07:04:11;;;;;;;;;;;;;;;21.91;29.17;97342.03;5039639;28;1663;-77
2023/06/10 07:06:37;;;;;;;;;;;;;;;21.62;29.52;97337.44;5041613;28;1127;-76
2023/06/10 07:09:07;;;;;;;;;;;;;;;21.90;29.18;97335.56;5041079;28;1013;-77
2023/06/10 07:11:32;;;;;;;;;;;;;;;21.70;29.47;97333.09;5041835;28;968;-76
2023/06/10 07:13:58;;;;;;;;;;;;;;;21.56;29.38;97333.63;5057760;28;998;-76
2023/06/10 07:16:24;;;;;;;;;;;;;;;21.47;29.74;97336.41;5059475;28;1091;-77
2023/06/10 07:18:49;;;;;;;;;;;;;;;21.76;29.33;97331.25;5077244;28;1839;-77
2023/06/10 07:21:15;;;;;;;;;;;;;;;21.84;29.03;97338.22;5028715;28;1508;-77
2023/06/10 07:23:44;;;;;;;;;;;;;;;21.84;28.88;97338.22;5044762;28;1969;-76
2023/06/10 07:26:10;;;;;;;;;;;;;;;21.64;29.26;97339.81;5059848;28;1398;-77
2023/06/10 07:28:37;;;;;;;;;;;;;;;21.50;29.69;97341.94;5061733;28;1632;-77
2023/06/10 07:31:02;;;;;;;;;;;;;;;21.68;29.48;97335.59;5062449;28;925;-77
2023/06/10 07:33:28;;;;;;;;;;;;;;;21.90;29.09;97340.44;5061466;28;940;-76
2023/06/10 07:35:53;;;;;;;;;;;;;;;21.83;28.99;97339.47;5079612;28;975;-77
2023/06/10 07:38:19;;;;;;;;;;;;;;;21.62;29.35;97345.94;5061476;28;854;-77
2023/06/10 07:40:45;;;;;;;;;;;;;;;21.76;29.09;97342.59;5037174;28;1424;-77
2023/06/10 07:43:10;;;;;;;;;;;;;;;21.65;29.00;97339.34;5037649;28;1898;-77
2023/06/10 07:45:36;;;;;;;;;;;;;;;21.81;28.93;97341.19;5037532;28;1232;-77
2023/06/10 07:48:01;;;;;;;;;;;;;;;21.90;29.00;97346.13;5037293;28;1001;-76
2023/06/10 07:50:27;;;;;;;;;;;;;;;21.60;29.28;97345.59;5036967;28;1026;-77
2023/06/10 07:52:53;;;;;;;;;;;;;;;21.43;29.45;97344.22;5013684;28;1104;-77
2023/06/10 07:55:18;;;;;;;;;;;;;;;21.60;29.24;97345.59;4997263;28;1736;-77
2023/06/10 07:57:44;;;;;;;;;;;;;;;21.61;29.35;97330.22;5014226;28;946;-76
2023/06/10 08:00:10;;;;;;;;;;;;;;;21.73;29.24;97337.84;4994922;28;1768;-77
2023/06/10 08:02:38;;;;;;;;;;;;;;;21.61;29.60;97338.72;5013672;28;1902;-77
2023/06/10 08:05:04;;;;;;;;;;;;;;;21.44;29.76;97331.66;5013620;28;1186;-77
2023/06/10 08:07:30;;;;;;;;;;;;;;;21.51;29.83;97342.72;4997993;28;1217;-77
2023/06/10 08:09:56;;;;;;;;;;;;;;;21.82;29.26;97337.13;4997218;28;1177;-76
2023/06/10 08:12:21;;;;;;;;;;;;;;;21.96;29.08;97332.94;5043403;28;1494;-77
2023/06/10 08:14:47;;;;;;;;;;;;;;;21.84;29.09;97337.44;5036411;28;956;-77
2023/06/10 08:17:13;;;;;;;;;;;;;;;21.74;29.37;97342.25;5020351;28;990;-77
2023/06/10 08:19:38;;;;;;;;;;;;;;;22.02;29.09;97336.72;5003131;28;1197;-76
2023/06/10 08:22:04;;;;;;;;;;;;;;;21.87;28.97;97335.72;5020001;28;2051;-77
2023/06/10 08:24:29;;;;;;;;;;;;;;;21.62;29.53;97337.44;5051178;28;1012;-76
2023/06/10 08:26:56;;;;;;;;;;;;;;;21.69;29.41;97336.38;5040373;28;1737;-77
2023/06/10 08:29:22;;;;;;;;;;;;;;;21.66;29.67;97348.63;5040354;28;2052;-77
2023/06/10 08:31:48;;;;;;;;;;;;;;;21.76;29.35;97342.59;5041187;28;1165;-76
2023/06/10 08:34:14;;;;;;;;;;;;;;;21.81;29.19;97344.81;5057093;28;1018;-77
2023/06/10 08:36:39;;;;;;;;;;;;;;;21.61;29.82;97350.03;5057316;28;1201;-77
2023/06/10 08:39:05;;;;;;;;;;;;;;;21.74;29.39;97339.41;5040623;28;1284;-76
2023/06/10 08:41:30;;;;;;;;;;;;;;;21.83;29.43;97341.53;5057154;28;1902;-77
2023/06/10 08:44:03;;;;;;;;;;;;;;;21.83;29.27;97342.31;5060782;28;1497;-77
2023/06/10 08:46:29;;;;;;;;;;;;;;;21.81;29.51;97339.16;5074092;28;1039;-77
2023/06/10 08:48:55;;;;;;;;;;;;;;;21.81;29.24;97327.84;5040375;28;1267;-77
2023/06/10 08:51:20;;;;;;;;;;;;;;;21.79;29.53;97338.81;5051812;28;1752;-76
2023/06/10 08:53:48;;;;;;;;;;;;;;;21.84;29.46;97332.56;5019486;28;951;-76
2023/06/10 08:56:14;;;;;;;;;;;;;;;21.68;29.63;97329.16;5019865;28;947;-77
2023/06/10 08:58:41;;;;;;;;;;;;;;;21.68;29.58;97329.16;5018708;28;1714;-77
2023/06/10 09:01:08;;;;;;;;;;;;;;;21.90;29.53;97320.63;5039779;28;1519;-77
2023/06/10 09:03:34;;;;;;;;;;;;;;;22.06;29.05;97326.84;5038118;28;2149;-77
2023/06/10 09:06:01;;;;;;;;;;;;;;;21.93;29.50;97314.03;5006437;28;1385;-77
2023/06/10 09:08:26;;;;;;;;;;;;;;;21.84;29.17;97309.91;5015198;28;1309;-77
2023/06/10 09:10:52;;;;;;;;;;;;;;;21.74;29.37;97305.44;4999275;28;950;-76
2023/06/10 09:13:18;;;;;;;;;;;;;;;21.88;29.15;97306.16;4999298;28;887;-77
2023/06/10 09:15:45;;;;;;;;;;;;;;;21.52;29.35;97260.16;4999572;28;1740;-77
2023/06/10 09:18:11;;;;;;;;;;;;;;;21.84;29.52;97309.91;4999346;28;1356;-76
2023/06/10 09:20:38;;;;;;;;;;;;;;;21.78;29.61;97316.63;5015108;28;1683;-77
2023/06/10 09:23:03;;;;;;;;;;;;;;;21.95;29.47;97311.53;4979398;28;1981;-76
2023/06/10 09:25:34;;;;;;;;;;;;;;;21.90;29.49;97301.59;5012327;28;1347;-77
2023/06/10 09:27:59;;;;;;;;;;;;;;;21.81;29.39;97313.69;5035149;28;1201;-76
2023/06/10 09:30:28;;;;;;;;;;;;;;;21.77;29.56;97310.19;5018484;28;973;-77
2023/06/10 09:32:56;;;;;;;;;;;;;;;21.89;29.63;97313.38;5035173;28;901;-77
2023/06/10 09:35:22;;;;;;;;;;;;;;;21.85;29.33;97311.47;5018752;28;1581;-77
2023/06/10 09:37:49;;;;;;;;;;;;;;;21.85;29.71;97311.47;5028070;28;1296;-76
2023/06/10 09:40:15;;;;;;;;;;;;;;;21.82;29.73;97300.31;5073242;28;1320;-76
2023/06/10 09:42:41;;;;;;;;;;;;;;;21.82;29.68;97305.97;5042814;28;1977;-77
2023/06/10 09:45:07;;;;;;;;;;;;;;;21.97;29.48;97301.31;5059465;28;851;-76
2023/06/10 09:47:32;;;;;;;;;;;;;;;21.91;29.50;97314.50;5059599;28;1580;-77
2023/06/10 09:49:58;;;;;;;;;;;;;;;21.90;29.31;97300.78;5042883;28;1472;-77
2023/06/10 09:52:24;;;;;;;;;;;;;;;22.16;29.03;97302.22;5059368;28;868;-77
2023/06/10 09:54:51;;;;;;;;;;;;;;;22.04;28.84;97292.53;5059355;28;985;-77
2023/06/10 09:57:17;;;;;;;;;;;;;;;21.90;29.16;97297.97;5042995;28;936;-77
2023/06/10 09:59:42;;;;;;;;;;;;;;;21.97;29.40;97289.22;5042019;28;1133;-76
2023/06/10 10:02:17;;;;;;;;;;;;;;;21.99;28.96;97298.03;5059370;28;1962;-76
2023/06/10 10:04:46;;;;;;;;;;;;;;;21.75;29.54;97298.50;5058813;28;943;-77
2023/06/10 10:07:12;;;;;;;;;;;;;;;21.68;29.64;97303.66;5055115;28;909;-77
2023/06/10 10:09:37;;;;;;;;;;;;;;;21.69;29.73;97297.53;5021517;28;1163;-77
2023/06/10 10:12:05;;;;;;;;;;;;;;;21.70;29.57;97299.09;5038514;28;926;-76
2023/06/10 10:14:31;;;;;;;;;;;;;;;21.92;29.32;97292.66;5037740;28;967;-76
2023/06/10 10:16:58;;;;;;;;;;;;;;;21.70;29.45;97293.44;5020861;28;1660;-77
2023/06/10 10:19:25;;;;;;;;;;;;;;;21.97;29.13;97289.22;5038533;28;913;-77
2023/06/10 10:21:54;;;;;;;;;;;;;;;22.00;28.92;97294.72;5038822;28;2259;-77
2023/06/10 10:24:23;;;;;;;;;;;;;;;21.74;29.43;97282.78;5018534;28;893;-76
2023/06/10 10:26:49;;;;;;;;;;;;;;;22.02;29.26;97291.41;5000892;28;1685;-77
2023/06/10 10:29:41;;;;;;;;;;;;;;;22.16;28.97;97285.22;5010883;28;1866;-77
2023/06/10 10:32:07;;;;;;;;;;;;;;;21.91;29.14;97296.72;4951746;29;1673;-76
2023/06/10 10:34:37;;;;;;;;;;;;;;;21.85;29.57;97294.47;4929285;29;1250;-77
2023/06/10 10:37:03;;;;;;;;;;;;;;;21.94;29.25;97290.91;4942423;29;1681;-76
2023/06/10 10:39:28;;;;;;;;;;;;;;;21.96;28.94;97284.78;4924957;29;898;-77
2023/06/10 10:41:54;;;;;;;;;;;;;;;21.93;29.12;97288.56;4924955;29;1972;-75
2023/06/10 10:44:20;;;;;;;;;;;;;;;21.75;29.48;97283.56;4924958;29;1016;-77
2023/06/10 10:46:49;;;;;;;;;;;;;;;21.92;29.23;97275.66;4926094;28;1085;-77
2023/06/10 10:49:15;;;;;;;;;;;;;;;21.88;29.30;97278.63;4963211;28;1175;-76
2023/06/10 10:52:01;;;;;;;;;;;;;;;21.77;29.39;97270.53;4962986;28;1281;-76
2023/06/10 10:54:33;;;;;;;;;;;;;;;21.77;29.65;97275.41;4965659;28;1178;-76
2023/06/10 10:57:11;;;;;;;;;;;;;;;21.75;29.76;97275.84;4998391;28;1656;-76
2023/06/10 10:59:48;;;;;;;;;;;;;;;21.92;29.37;97275.66;4997710;28;1609;-77
2023/06/10 11:02:18;;;;;;;;;;;;;;;22.07;29.09;97265.31;4999001;28;1977;-76
2023/06/10 11:04:46;;;;;;;;;;;;;;;22.09;29.06;97268.47;4966122;28;1873;-77
2023/06/10 11:07:15;;;;;;;;;;;;;;;21.77;29.90;97266.91;4983154;28;1478;-76
2023/06/10 11:09:57;;;;;;;;;;;;;;;22.00;29.32;97260.72;5011427;28;937;-77
2023/06/10 11:12:24;;;;;;;;;;;;;;;21.97;29.54;97256.00;5021635;28;866;-76
2023/06/10 11:14:53;;;;;;;;;;;;;;;22.05;29.34;97253.66;5020501;28;1740;-76
2023/06/10 11:17:20;;;;;;;;;;;;;;;22.23;29.14;97259.44;5018618;28;1727;-77
2023/06/10 11:19:46;;;;;;;;;;;;;;;22.20;29.18;97257.53;4985287;28;1107;-76
2023/06/10 11:22:16;;;;;;;;;;;;;;;22.00;29.43;97254.28;5017496;28;1977;-77
2023/06/10 11:24:41;;;;;;;;;;;;;;;21.98;29.71;97256.78;5001568;28;871;-76
2023/06/10 11:27:19;;;;;;;;;;;;;;;22.14;29.31;97261.44;5000492;28;1284;-76
2023/06/10 11:29:57;;;;;;;;;;;;;;;21.98;29.59;97251.91;5017420;28;1176;-77
2023/06/10 11:32:23;;;;;;;;;;;;;;;22.00;29.37;97245.78;4998553;28;1471;-76
2023/06/10 11:34:52;;;;;;;;;;;;;;;22.28;29.12;97252.38;4965237;28;1117;-77
2023/06/10 11:37:18;;;;;;;;;;;;;;;22.01;29.54;97250.97;4968875;28;813;-77
2023/06/10 11:39:43;;;;;;;;;;;;;;;21.91;29.77;97235.19;4994518;28;1131;-77
2023/06/10 11:42:10;;;;;;;;;;;;;;;21.93;29.75;97235.53;4978737;28;1910;-77
2023/06/10 11:44:37;;;;;;;;;;;;;;;22.05;29.48;97233.84;4994384;28;928;-76
2023/06/10 11:47:03;;;;;;;;;;;;;;;21.97;29.40;97238.22;5003867;28;1283;-76
2023/06/10 11:49:29;;;;;;;;;;;;;;;22.05;29.11;97233.84;5013524;28;1763;-77
2023/06/10 11:51:54;;;;;;;;;;;;;;;22.29;28.81;97237.72;5030723;28;1177;-77
2023/06/10 11:54:21;;;;;;;;;;;;;;;22.02;29.37;97234.75;5013883;28;1018;-77
2023/06/10 11:56:48;;;;;;;;;;;;;;;21.97;29.42;97238.22;4997446;28;970;-77
2023/06/10 11:59:13;;;;;;;;;;;;;;;21.89;29.50;97219.94;4997137;28;945;-77
2023/06/10 12:01:42;;;;;;;;;;;;;;;22.17;29.28;97220.81;5014033;28;1973;-76
2023/06/10 12:04:15;;;;;;;;;;;;;;;22.01;29.46;97227.50;5045557;28;1679;-77
2023/06/10 12:06:41;;;;;;;;;;;;;;;22.14;29.26;97225.41;5036853;28;1054;-77
2023/06/10 12:09:27;;;;;;;;;;;;;;;22.15;29.11;97215.63;5019366;28;1708;-77
2023/06/10 12:12:03;;;;;;;;;;;;;;;21.81;29.88;97220.22;5036175;28;1668;-76
2023/06/10 12:14:47;;;;;;;;;;;;;;;21.85;29.71;97214.41;5019558;28;1762;-77
2023/06/10 12:17:13;;;;;;;;;;;;;;;21.77;29.86;97213.91;5048078;28;981;-77
2023/06/10 12:19:39;;;;;;;;;;;;;;;22.04;29.52;97220.94;5058452;28;1262;-77
2023/06/10 12:22:05;;;;;;;;;;;;;;;22.17;29.38;97212.31;5060258;28;1894;-76
2023/06/10 12:24:30;;;;;;;;;;;;;;;21.99;29.55;97210.22;5077430;28;1011;-77
2023/06/10 12:26:56;;;;;;;;;;;;;;;22.24;29.08;97212.06;5078619;28;1158;-77
2023/06/10 12:29:24;;;;;;;;;;;;;;;22.29;29.03;97209.38;5078938;28;942;-76
2023/06/10 12:31:53;;;;;;;;;;;;;;;22.01;29.57;97202.03;5078434;28;892;-76
2023/06/10 12:34:18;;;;;;;;;;;;;;;21.94;29.68;97199.50;5077929;28;987;-76
2023/06/10 12:36:50;;;;;;;;;;;;;;;22.18;29.16;97205.44;5077669;28;1665;-77
2023/06/10 12:39:16;;;;;;;;;;;;;;;22.02;29.56;97195.09;5058028;28;1970;-77
2023/06/10 12:41:46;;;;;;;;;;;;;;;22.14;29.29;97174.41;5078390;28;1902;-76
2023/06/10 12:44:12;;;;;;;;;;;;;;;21.89;29.69;97185.94;5060203;28;901;-77
2023/06/10 12:46:38;;;;;;;;;;;;;;;21.82;29.96;97190.63;5043011;28;1005;-77
2023/06/10 12:49:03;;;;;;;;;;;;;;;21.82;29.78;97182.16;5077982;28;931;-77
2023/06/10 12:51:29;;;;;;;;;;;;;;;21.93;29.88;97183.75;5078216;28;918;-77
2023/06/10 12:53:55;;;;;;;;;;;;;;;21.82;30.01;97170.03;5058887;28;1459;-76
2023/06/10 12:56:21;;;;;;;;;;;;;;;22.00;29.92;97186.28;5060581;28;910;-76
2023/06/10 12:58:47;;;;;;;;;;;;;;;21.97;29.80;97176.69;5054689;28;1661;-77